Regional Weather Synopsis
Issued by NWS Denver/Boulder, CO

Home | Current Version | Previous Version | Text Only | Print | Product List | Glossary On
Versions: 1 2 3 4 5 6 7 8 9 10 11 12 13 14 15 16 17 18 19 20 21 22 23 24 25 26 27 28 29 30 31 32 33 34 35 36 37 38 39 40 41 42 43 44 45 46 47 48 49 50
000
NZUS99 KBOU 252247
SYNBOU

Hot-Air Balloon Forecast for Colorado
National Weather Service Denver/Boulder, Colorado
1645 MDT Saturday, June 25, 2022


* * * * * Northeast Colorado * * * * *

METAR KFNL 252156Z VRB04KT 7SM CLR 23/08 A3033 RMK AO2 SLP217
       T02280078
METAR KFNL 252056Z 19007KT 130V210 10SM OVC046 22/08 A3034 RMK AO2
       SLP225 T02170083 58015
METAR KFNL 251956Z 17007KT 10SM OVC046 22/08 A3036 RMK AO2 SLP229
       T02170078

METAR KGXY 252156Z 16007KT 10SM BKN110 23/08 A3031 RMK AO2 SLP231
       T02330083 $
METAR KGXY 252056Z 36005KT 10SM SCT110 22/08 A3033 RMK AO2 SLP244
       T02170078 58018 $
METAR KGXY 251956Z VRB04KT 10SM BKN055 22/08 A3035 RMK AO2 SLP253
       T02170078 $

METAR KLMO 252235Z AUTO 14004KT 10SM SCT095 BKN120 22/07 A3033 RMK AO2
       T02200073
METAR KLMO 252215Z AUTO 00000KT 10SM SCT048 22/07 A3035 RMK AO2
       T02150072
METAR KLMO 252155Z AUTO 00000KT 7SM CLR 24/07 A3035 RMK AO2
       T02380072

METAR KBDU 252235Z AUTO 10004KT 10SM SCT120 20/06 A3034 RMK AO2 LTG DSNT
       S
METAR KBDU 252215Z AUTO 09004KT 10SM CLR 21/06 A3034 RMK AO2
METAR KBDU 252155Z AUTO 15005KT 10SM VCTS CLR 22/06 A3034 RMK AO2

METAR KEIK 252235Z AUTO 00000KT 10SM SCT060 22/06 A3034 RMK AO2 LTG DSNT
       S T02180057 PWINO
METAR KEIK 252215Z AUTO 17003KT 10SM CLR 22/06 A3033 RMK AO2 T02200059
       PWINO
METAR KEIK 252155Z AUTO 00000KT 10SM VCTS CLR 22/06 A3032 RMK AO2 T02180058

KBJC 252119Z 2521/2618 01005KT P6SM SCT040 BKN120
     FM252300 08007KT P6SM VCSH SCT025 BKN045
      TEMPO 2600/2604 -SHRA BKN025
     FM260400 VRB05KT P6SM VCSH BKN035
     FM261300 04005KT P6SM VCSH FEW010 BKN020 OVC040
METAR KBJC 252147Z VRB04KT 10SM SCT070 BKN100 20/07 A3036
METAR KBJC 252045Z 02005KT 10SM SCT070 BKN100 20/06 A3037
METAR KBJC 251945Z 29004KT 20SM BKN070 BKN100 18/05 A3039

KDEN 252108Z 2521/2624 08007KT P6SM BKN040
     FM252300 11008KT P6SM BKN045
      TEMPO 2601/2604 -SHRA BKN025
     FM260400 07007KT P6SM VCSH BKN035
     FM261000 VRB05KT P6SM VCSH OVC020
     FM261400 14005KT P6SM FEW010 BKN020 OVC035
     FM262000 15008KT P6SM FEW030 SCT050
METAR KDEN 252153Z VRB06KT 10SM SCT040 BKN160 BKN250 22/08 A3033 RMK AO2
       SLP205 T02170083 $
METAR KDEN 252053Z 10006KT 10SM BKN040 BKN120 20/08 A3035 RMK AO2 SLP214
       T02000083 58014 $
METAR KDEN 251953Z VRB03KT 10SM BKN038 BKN120 19/08 A3036 RMK AO2 SLP218
       T01890083 $


KBKF 251700Z 2517/2623 VRB06KT 9999 OVC011 510033 QNH3036INS
      BECMG 2519/2520 VRB06KT 9999 FEW020 510033 QNH3030INS
      BECMG 2602/2603 VRB06KT 9000 -SHRA BKN045 510033 QNH3035INS
      BECMG 2607/2608 VRB06KT 9999 NSW FEW030 510043 QNH3042INS
      BECMG 2608/2609 VRB06KT 8000 -SHRA BKN030 510043 QNH3043INS
      BECMG 2609/2610 VRB06KT 8000 -SHRA BKN021 510043 QNH3044INS
      BECMG 2612/2613 VRB06KT 8000 -SHRA OVC004 510043 QNH3049INS
      BECMG 2619/2620 VRB06KT 8000 -RA OVC012 510043 QNH3048INS
      BECMG 2620/2621 VRB06KT 8000 DZ BR SCT012 510043 QNH3043INS
      BECMG 2622/2623 VRB06KT 9999 NSW BKN030 520033 QNH3038INS
      TX21/2523Z TN11/2615Z
METAR KBKF 252158Z 35003KT 10SM SCT035 BKN120 BKN190 21/09 A3035 RMK
        AO2A SLP220 T02050085
METAR KBKF 252058Z 00000KT 10SM BKN035 BKN120 BKN180 21/08 A3036 RMK
        AO2A SLP220 T02070083 57015
METAR KBKF 251958Z 05004KT 10SM BKN030 BKN180 19/08 A3037 RMK AO2A
        SLP227 T01940078

KAPA 252119Z 2521/2618 29004KT P6SM SCT040 BKN120
     FM252300 29007KT P6SM VCSH SCT025 BKN040
      TEMPO 2600/2604 -SHRA BKN025
     FM260400 17007KT P6SM VCSH BKN035
     FM260800 13007KT P6SM VCSH SCT020
     FM261400 VRB05KT P6SM VCSH FEW010 BKN015 OVC025
METAR KAPA 252153Z 28008KT 10SM FEW060 BKN130 BKN220 19/08 A3035 RMK AO2
       SLP232 T01890078
METAR KAPA 252053Z 24009KT 10SM FEW040 SCT120 BKN220 19/08 A3037 RMK AO2
       SLP239 T01890078 56014
METAR KAPA 251953Z 00000KT 10SM BKN035 BKN120 18/08 A3038 RMK AO2 SLP245
       T01780078

METAR KMNH 252235Z AUTO 04004KT 10SM CLR 16/M32 A3043 RMK AO2
METAR KMNH 252215Z AUTO 06007KT 10SM SCT030 16/M32 A3044 RMK AO2
METAR KMNH 252155Z AUTO 08004KT 10SM TS SCT030 17/M32 A3044 RMK AO2

METAR KFMM 252235Z AUTO VRB04G15KT 10SM CLR 24/08 A3029 RMK AO2
METAR KFMM 252215Z AUTO 00000G11KT 10SM CLR 24/08 A3029 RMK AO2
METAR KFMM 252155Z AUTO VRB06G15KT 10SM CLR 24/08 A3029 RMK AO2 LTG
        DSNT NE

METAR KSTK 252235Z AUTO 05005KT 10SM CLR 25/07 A3026 RMK AO2
METAR KSTK 252215Z AUTO 04006KT 10SM CLR 25/08 A3026 RMK AO2
METAR KSTK 252155Z AUTO 03005G16KT 10SM SCT060 25/08 A3027 RMK AO2 LTG
       DSNT SW

METAR KAKO 252153Z AUTO 02010G18KT 10SM CLR 23/07 A3030 RMK AO2 SLP213
       T02330072
METAR KAKO 252053Z AUTO 05010G15KT 10SM CLR 23/07 A3032 RMK AO2 SLP219
       T02280067 56012
METAR KAKO 251953Z AUTO 01011G20KT 10SM CLR 23/06 A3032 RMK AO2 SLP218
       T02330056

METAR KLIC 252155Z AUTO 03013G20KT 10SM CLR 25/06 A3031 RMK AO2 SLP195
       T02500056
METAR KLIC 252055Z AUTO 04014G21KT 10SM CLR 24/07 A3033 RMK AO2 SLP200
       T02440067 58013
METAR KLIC 251955Z AUTO 02011G20KT 10SM CLR 22/08 A3034 RMK AO2 SLP214
       T02170078

METAR KHEQ 252235Z AUTO 01009KT 10SM CLR 27/06 A3025 RMK AO2
METAR KHEQ 252215Z AUTO 02009G14KT 10SM CLR 27/06 A3026 RMK AO2
METAR KHEQ 252155Z AUTO 03010G15KT 10SM CLR 26/06 A3026 RMK AO2 LTG DSNT
       SW

METAR K2V6 252234Z AUTO 36007G18KT 10SM CLR 25/M25 A3026 RMK AO2
METAR K2V6 252214Z AUTO 02010KT 360V060 10SM CLR 25/M25 A3026 RMK
       AO2
METAR K2V6 252154Z AUTO 06009KT 10SM CLR 24/M24 A3026 RMK AO2 LTG DSNT
       W

METAR K2V5 252235Z AUTO 04012G18KT 10SM CLR 25/06 A3026 RMK AO2
METAR K2V5 252215Z AUTO 05009G18KT 10SM CLR 25/06 A3026 RMK AO2
METAR K2V5 252155Z AUTO 04011G20KT 10SM CLR 25/06 A3026 RMK AO2 LTG DSNT
       W

METAR KITR 252153Z AUTO 03013G25KT 010V070 10SM CLR 26/09 A3028 RMK AO2
       SLP202 T02560089
METAR KITR 252053Z AUTO 04013G20KT 10SM CLR 24/08 A3029 RMK AO2 PK
        WND 36027/2014 SLP207 T02390083 55005
METAR KITR 251953Z AUTO 36016G25KT 10SM CLR 23/08 A3029 RMK AO2 PK WND
       01026/1929 SLP206 T02280083

Sunrise/Sunset for 06/25/2022
Fort Collins - 05:31:01 MDT / 20:34:59 MDT
Denver       - 05:33:18 MDT / 20:31:50 MDT
Sterling     - 05:23:17 MDT / 20:27:53 MDT

Denver/Boulder (KFTG) 06/25/22 22:39 UTC
Radar VAD winds      Height      Dir/Spd(kt)
                  30000 FT MSL...247/024
                  28000 FT MSL...236/037
                  26000 FT MSL...294/043
                  25000 FT MSL...264/026
                  24000 FT MSL...277/038
                  22000 FT MSL...286/026
                  20000 FT MSL...291/029
                  19000 FT MSL...316/024
                  18000 FT MSL...299/020
                  17000 FT MSL...285/029
                  16000 FT MSL...324/019
                  15000 FT MSL...324/018
                  10000 FT MSL...097/010
                  10000 FT MSL...087/006
                   9000 FT MSL...069/007
                   8900 FT MSL...082/007
                   8100 FT MSL...075/007
                   8000 FT MSL...079/006
                   7000 FT MSL...087/008
                   6600 FT MSL...078/006
                   6200 FT MSL...070/008
                   6000 FT MSL...072/008

Denver/Boulder Aviation Discussion
Issued at 2054 UTC Saturday, June 25, 2022

.AVIATION...(For the 18Z TAFS through 18Z Sunday afternoon)
Issued at 1040 AM MDT Sat Jun 25 2022
ILS conditions are likely through the TAF period at DEN, with MVFR
to IFR ceilings possible at APA/BJC. Ceilings this morning are
slowly rising and should continue to do so for the next several
hours. Some guidance tries to scatter out the stratus this
afternoon but this seems unlikely. A few showers are possible this
evening and overnight, with the best chance of seeing rain at APA.
There`s a very slight chance of TS this evening but not high
enough confidence to put in the TAF. Cloud decks should lower
again Sunday morning. Light winds are forecast through the TAF
period.


* * * * * Southeast Colorado * * * * *

METAR K4BM 252230Z AUTO 02005KT 1SM -VCTSSN BKN010 OVC019 05/03 A3064
       RMK AO2 LTG DSNT ALQS
METAR K4BM 252215Z AUTO 33011G22KT 5SM TSRA SCT012 BKN027 OVC036 06/03
       A3067 RMK AO2 LTG DSNT ALQS
METAR K4BM 252155Z AUTO 35015G20KT 10SM SCT008 BKN012 OVC036 07/02
        A3066 RMK AO2

METAR KAFF 252158Z AUTO 34014KT 10SM SCT060 BKN100 18/09 A3036 RMK
        AO2 SLP213 T01750086 PWINO $
METAR KAFF 252058Z AUTO 34012KT 10SM FEW190 19/09 A3036 RMK AO2 SLP208
        T01850085 57007 PWINO $
METAR KAFF 251958Z AUTO 34013KT 10SM FEW160 FEW200 19/09 A3037 RMK
        AO2 SLP211 T01850085 PWINO $

KCOS 252152Z 2522/2618 12015G25KT P6SM VCSH BKN035
     FM260100 01008KT P6SM SHRA BKN020
     FM260400 12006KT P6SM VCSH BKN020
METAR KCOS 252154Z 12009G18KT 10SM SCT060 SCT160 BKN250 24/07 A3035
        RMK AO2 PK WND 12026/2129 SLP191 T02390072
SPECI KCOS 252135Z 12008G26KT 10SM FEW060 SCT160 BKN250 23/07 A3036 RMK
       AO2 PK WND 12026/2129 T02330067
METAR KCOS 252054Z 08008G15KT 050V130 10SM FEW060 SCT160 BKN250 24/07
        A3035 RMK AO2 SLP191 T02440072 58010

METAR KABH 252158Z AUTO 09010KT 10SM FEW055 23/07 A3036 RMK AO2 SLP207
        T02270072
METAR KABH 252058Z AUTO 15003KT 10SM CLR 22/07 A3037 RMK AO2 LTG DSNT
        SW SLP216 T02160070 57010
METAR KABH 251958Z AUTO 11006KT 10SM FEW130 21/08 A3038 RMK AO2 SLP225
        T02130082

METAR KFLY 252233Z AUTO 09010G17KT 10SM SCT050 OVC110 20/07 A3041 RMK
       AO2 T01970072
METAR KFLY 252213Z AUTO 10007KT 080V150 10SM BKN050 OVC100 20/07 A3041
       RMK AO2 T01990069
METAR KFLY 252153Z AUTO 06005KT 10SM VCTS BKN100 21/07 A3042 RMK AO2
       T02140065

KFCS 2521/2703 12010G15KT 9999 FEW020 SCT060 BKN200 QNH3031INS
     BECMG 2522/2623 13010G15KT 9999 -SHRA VCTS SCT040CB BKN070
     OVC130 QNH3028INS
     TEMPO 2600/2603 VRB20G30KT 4800 -TSRA BKN030CB OVC070
     BECMG 2604/2605 06010G15KT 9000 -RA BR BKN020 OVC035
     QNH3042INS
     BECMG 2614/2615 13012KT 9000 -RA BR SCT005 OVC015
     QNH3046INS
     BECMG 2620/2621 16010KT 9999 -SHRA FEW015 OVC030
     QNH3047INS TX23/2521Z TN11/2618Z
METAR KFCS 252158Z AUTO 16012KT 10SM FEW060 24/07 A3031 RMK AO2 SLP209
        T02380074 $
METAR KFCS 252058Z AUTO 10008G18KT 10SM CLR 23/07 A3031 RMK AO2 SLP209
        T02340071 58009 $
METAR KFCS 251958Z AUTO 13014G17KT 10SM SCT050 SCT180 24/08 A3032 RMK
        AO2 SLP212 T02360080 $

KPUB 252017Z 2520/2618 08015G25KT P6SM BKN090
     FM252300 06017KT P6SM VCSH SCT040 BKN090
     FM260100 05010KT 4SM SHRA OVC025
     FM260300 13005KT 4SM SHRA OVC025
     FM260600 12005KT P6SM VCSH OVC020
METAR KPUB 252153Z AUTO 09012G18KT 10SM CLR 25/08 A3028 RMK AO2 SLP196
       T02500083
METAR KPUB 252053Z AUTO 10012G20KT 10SM CLR 24/09 A3029 RMK AO2 SLP199
       T02390094 58010
METAR KPUB 251953Z 09012KT 10SM CLR 24/09 A3030 RMK AO2 SLP200
       T02440094

METAR KVTP 252235Z AUTO 07005KT M1/4SM RA OVC002 07/07 A3059 RMK AO2
       P0004
METAR KVTP 252215Z AUTO 10004KT M1/4SM -RA OVC002 08/07 A3059 RMK
       AO2
METAR KVTP 252155Z AUTO 11005KT 5SM BR OVC002 08/07 A3058 RMK AO2

METAR KTAD 252154Z AUTO 07008KT 10SM SCT030 SCT036 22/11 A3034 RMK
        AO2 SLP202 T02170111
METAR KTAD 252054Z AUTO 08010KT 10SM SCT035 20/11 A3035 RMK AO2 SLP209
       T02000111 51003
METAR KTAD 251954Z AUTO 05016G23KT 10SM SCT037 BKN045 21/11 A3035 RMK
        AO2 SLP204 T02110111

METAR KLHX 252153Z AUTO 05015G19KT 10SM CLR 23/09 A3026 RMK AO2 SLP192
       T02330094 $
METAR KLHX 252053Z AUTO 05010G19KT 10SM CLR 23/10 A3029 RMK AO2 SLP201
       T02330100 58003 $
METAR KLHX 251953Z AUTO 04017G24KT 10SM CLR 23/10 A3029 RMK AO2 PK
        WND 04026/1907 SLP202 T02280100 $

METAR KLAA 252153Z AUTO 05013G20KT 10SM CLR 23/10 A3022 RMK AO2 RAE2055
       SLP189 P0000 T02280100
METAR KLAA 252053Z AUTO 03012KT 10SM -RA FEW038 SCT080 BKN100 22/10
       A3026 RMK AO2 RAB46 SLP201 P0000 60000 T02220100 58006
METAR KLAA 251953Z AUTO 02011KT 10SM CLR 22/11 A3026 RMK AO2 SLP202
        T02170106


Sunrise/Sunset for 06/25/2022
Burlington - 05:23:54 MDT / 20:19:44 MDT
Pueblo     - 05:36:34 MDT / 20:25:51 MDT
Lamar      - 05:29:06 MDT / 20:17:17 MDT

Pueblo (KPUX) 06/25/22 22:39 UTC
Radar VAD winds      Height      Dir/Spd(kt)
                  33000 FT MSL...257/036
                  31000 FT MSL...263/031
                  30000 FT MSL...260/021
                  29000 FT MSL...263/022
                  27000 FT MSL...263/023
                  25000 FT MSL...260/024
                  24000 FT MSL...286/021
                  23000 FT MSL...293/020
                  22000 FT MSL...261/022
                  21000 FT MSL...305/019
                  20000 FT MSL...283/016
                  19000 FT MSL...295/014
                  18000 FT MSL...308/020
                  17000 FT MSL...304/019
                   9000 FT MSL...071/016
                   8600 FT MSL...073/014
                   8000 FT MSL...075/017
                   7800 FT MSL...079/015
                   7100 FT MSL...080/016
                   7000 FT MSL...077/017
                   6400 FT MSL...080/015
                   6000 FT MSL...083/016
                   5900 FT MSL...082/016
                   5700 FT MSL...080/015

Pueblo Aviation Discussion
Issued at 2051 UTC Saturday, June 25, 2022

.AVIATION...(For the 00Z TAFS through 00Z Sunday evening)
Issued at 249 PM MDT Sat Jun 25 2022
Periods of MVFR conditions with IFR conditions possible are expected
through the evening over KALS, KCOS, and KPUB as showers and
thunderstorms develop over and near the terminals, however during
the overnight VFR conditions will be prevailing. Vicinity showers
will return to all forecast points tomorrow afternoon, but VFR
conditions are continued to be the prevailing flight category.


* * * * * Northwest Colorado * * * * *

METAR KCAG 252153Z AUTO 30013G20KT 270V340 10SM BKN100 29/02 A3026 RMK
       AO2 SLP178 T02890017
METAR KCAG 252053Z AUTO VRB05KT 10SM CLR 27/03 A3027 RMK AO2 SLP183
       T02720028 56013
METAR KCAG 251953Z AUTO 29005G14KT 10SM FEW100 27/04 A3028 RMK AO2
       SLP187 T02720039

METAR KHDN 252156Z VRB05KT 10SM FEW085 BKN120 24/03 A3030 RMK AO2 SLP187
       T02440028
METAR KHDN 252056Z 32007KT 270V350 10SM SCT085 25/04 A3031 RMK AO2
       SLP190 T02500039 58009
METAR KHDN 251956Z VRB05KT 10SM CLR 24/02 A3032 RMK AO2 SLP195
       T02440017

METAR KSBS 252235Z AUTO 25010KT 10SM CLR 25/03 A3029 RMK AO1
       T02460031
METAR KSBS 252215Z AUTO 26011G15KT 10SM CLR 24/04 A3029 RMK AO1
       T02430038
METAR KSBS 252155Z AUTO 26010KT 10SM SCT090 25/04 A3029 RMK AO1 T02500036

METAR KC07 252235Z AUTO 30004KT 10SM SCT060 15/01 A3059 RMK AO2 LTG DSNT
       SE
METAR KC07 252215Z AUTO 29007KT 10SM CLR 15/00 A3059 RMK AO2
METAR KC07 252155Z AUTO 27005KT 10SM VCTS SCT060 15/01 A3059 RMK AO2

METAR K33V 252235Z AUTO 34010KT 10SM SCT110 20/04 A3042 RMK AO1
METAR K33V 252215Z AUTO 35007KT 10SM SCT080 SCT095 BKN110 19/03 A3042
       RMK AO1
METAR K33V 252155Z AUTO 36007KT 10SM SCT080 BKN095 BKN110 19/03 A3042
       RMK AO1

SPECI KEEO 252215Z AUTO 03014G21KT 10SM BKN110 27/03 A3025 RMK AO2 WSHFT
       2155 T02720033
METAR KEEO 252153Z AUTO 34007KT 10SM BKN100 26/02 A3025 RMK AO2 SLP168
       T02610017
METAR KEEO 252053Z AUTO VRB03KT 10SM SCT110 26/02 A3026 RMK AO2 SLP168
       T02610017 56010

METAR K20V 252235Z AUTO 36011G15KT 324V024 10SM CLR 24/01 A3034 RMK
       AO2
METAR K20V 252215Z AUTO 33012G16KT 10SM CLR 24/02 A3034 RMK AO2
METAR K20V 252155Z AUTO 32008G14KT 10SM VCTS CLR 24/02 A3034 RMK AO2

METAR KGNB 252235Z AUTO 35012G18KT 10SM CLR 22/M03 A3038 RMK AO2
       T02221035
METAR KGNB 252215Z AUTO 33014G20KT 10SM SCT085 SCT110 22/M03 A3039 RMK
       AO2 T02181033
METAR KGNB 252155Z AUTO 33010G16KT 10SM VCTS SCT085 SCT110 22/M03 A3039
       RMK AO2 T02161033

METAR K0CO 252235Z AUTO 13005KT BKN002 BKN026 OVC060 05/02 A3070 RMK AO2
       PWINO
METAR K0CO 252215Z AUTO 18012G20KT 05/03 A3069 RMK AO2 PWINO
METAR K0CO 252155Z AUTO SCT045 BKN055 OVC095 06/02 A3069 RMK AO2
       PWINO

METAR KC99 252135Z AUTO 10006KT 10SM BKN011 BKN029 OVC049 09/05 A3060
       RMK AO2
METAR KC99 252115Z AUTO 11005KT 10SM BKN011 BKN031 OVC100 09/05 A3061
       RMK AO2
METAR KC99 252055Z AUTO 12005KT 10SM SCT010 SCT025 OVC100 11/06 A3060
       RMK AO2 LTG DSNT S

KGJT 251732Z 2518/2618 15007KT P6SM FEW120
     FM251900 19006KT P6SM FEW120
     FM252000 30010KT P6SM FEW120 SCT250
     FM260200 04009KT P6SM SCT120 SCT200
     FM260600 11008KT P6SM FEW250
METAR KGJT 252153Z 35014G27KT 10SM CLR 33/02 A3011 RMK AO2 PK WND
       01028/2139 SLP121 T03280017
METAR KGJT 252053Z AUTO 10SM FEW110 32/01 A3011 RMK AO2 SLP122 T03170006
       58018
METAR KGJT 251953Z COR 18005KT 10SM CLR 32/01 A3013 RMK AO2 SLP127
       T03220006

KRIL 251732Z 2518/2618 VRB04KT P6SM FEW110
     FM252000 30010KT P6SM FEW110
     FM260200 15007KT P6SM FEW110
     FM260400 VRB04KT P6SM SCT250
METAR KRIL 252153Z AUTO 29006KT 10SM CLR 30/00 A3016 RMK AO2 SLP146
       T03000000
METAR KRIL 252053Z AUTO 27010G15KT 10SM CLR 30/01 A3018 RMK AO2 SLP150
       T03000011 58015
METAR KRIL 251953Z AUTO 28006KT 10SM CLR 29/01 A3019 RMK AO2 SLP156
       T02940006

METAR K5SM 252235Z AUTO 34003KT 10SM CLR 15/M01 A3060 RMK AO2 LTG DSNT
       SE
METAR K5SM 252215Z AUTO 00000KT 10SM CLR 15/M01 A3060 RMK AO2
METAR K5SM 252155Z AUTO 32007KT 10SM VCTS CLR 15/M01 A3061 RMK AO2

KEGE 251732Z 2518/2618 VRB04KT P6SM FEW100
     FM252100 26010KT P6SM SCT100
     FM260000 36008KT P6SM SCT100 BKN200
     FM260300 VRB04KT P6SM FEW200
METAR KEGE 252156Z 24007G14KT 10SM BKN100 28/03 A3026 RMK AO2 SLP143
       T02780028
METAR KEGE 252056Z 25006KT 10SM CLR 27/02 A3027 RMK AO2 SLP148 T02670017
       56017
METAR KEGE 251956Z 04006KT 10SM CLR 27/04 A3028 RMK AO2 SLP150
       T02670044

KASE 252129Z 2521/2618 35010G20KT P6SM VCTS SCT090CB
     FM260100 16009KT P6SM VCTS SCT090CB BKN120
     FM260300 19007KT P6SM SCT100
METAR KASE 252153Z 32008KT 10SM CLR 23/01 A3033 RMK AO2 SLP166
       T02280006
METAR KASE 252053Z 36011G19KT 10SM CLR 24/00 A3033 RMK AO2 SLP154
       T02440000 56010
METAR KASE 251953Z 35009G16KT 10SM CLR 25/M01 A3034 RMK AO2 SLP155
       T02501006

METAR KCCU 252235Z AUTO 29012G19KT 10SM CLR 15/M02 A3066 RMK AO2
METAR KCCU 252215Z AUTO 31012G21KT 10SM SCT065 16/M01 A3066 RMK AO2
METAR KCCU 252155Z AUTO 29011G21KT 10SM SCT065 SCT085 16/M03 A3066 RMK
       AO2

METAR KLXV 252153Z AUTO 17013G21KT 10SM BKN110 17/00 A3049 RMK AO2
       SLP182 T01670000
METAR KLXV 252053Z AUTO 16011G20KT 10SM BKN085 OVC110 17/00 A3049 RMK
       AO2 LTG DSNT E SLP187 T01670000 58006
METAR KLXV 251953Z AUTO VRB03KT 10SM BKN090 17/M02 A3050 RMK AO2 SLP181
       T01721022

Sunrise/Sunset for 06/25/2022
Rangely           - 05:47:24 MDT / 20:48:17 MDT
Grand Junction    - 05:49:43 MDT / 20:44:09 MDT
Steamboat Springs - 05:38:17 MDT / 20:41:44 MDT

Grand Junction Aviation Discussion
Issued at 2052 UTC Saturday, June 25, 2022

.AVIATION...(For the 18Z TAFS through 18Z Sunday afternoon)
Issued at 1142 AM MDT Sat Jun 25 2022
Moisture levels have decreased across the region which will reduce
thunderstorm activity this afternoon and evening. Therefore, the
potential for thunderstorms impacting TAF sites directly is low
and have only mentioned VCTS for the mountain sites KASE, KGUC,
KTEX as well as KDRO where moisture was a bit deeper. Otherwise,
VFR conditions will prevail at all TAF sites with ceilings staying
above ILS breakpoints through the next 24 hours.


* * * * * Southwest Colorado * * * * *

METAR KAJZ 252235Z AUTO 24010G16KT 10SM CLR 35/M06 A3011 RMK AO2
       T03471056 PWINO
METAR KAJZ 252215Z AUTO 18008G17KT 10SM CLR 35/M04 A3012 RMK AO2
       T03501037 PWINO
METAR KAJZ 252155Z AUTO 17008KT 10SM CLR 34/M03 A3013 RMK AO2 LTG DSNT E
       T03391027 PWINO

KMTJ 251732Z 2518/2618 33010KT P6SM SCT120
     FM260200 12010KT P6SM FEW120 SCT200
     FM260400 14007KT P6SM SCT200
METAR KMTJ 252153Z AUTO 34006KT 10SM CLR 30/M02 A3018 RMK AO2 SLP140
       T03001017
METAR KMTJ 252053Z AUTO 32009G16KT 180V020 10SM CLR 30/01 A3019 RMK AO2
       SLP142 T03000006 58016
METAR KMTJ 251953Z AUTO 33011KT 10SM CLR 29/M01 A3021 RMK AO2 SLP147
       T02941006

METAR KGUC 252156Z AUTO 06005KT 10SM SCT100 BKN120 24/02 A3031 RMK AO2
       SLP184 T02440017
METAR KGUC 252056Z AUTO 24007KT 220V290 10SM CLR 25/02 A3032 RMK AO2
       SLP185 T02500022 58017
METAR KGUC 251956Z AUTO 01013KT 10SM CLR 23/01 A3034 RMK AO2 SLP193
       T02330011

METAR K7BM 252235Z AUTO 14009G15KT 10SM VCTS BKN120 17/ A3050 RMK
       AO2
METAR K7BM 252215Z AUTO 15006KT 10SM TS SCT070 SCT120 17/ A3051 RMK AO2
       LTG DSNT NE
METAR K7BM 252155Z AUTO 00000KT 10SM TS SCT024 BKN080 OVC100 17/ A3051
       RMK AO2 LTG DSNT NE AND S

METAR KAEJ 252235Z AUTO 00000KT 10SM 23/03 A3037 RMK AO2 LTG DSNT NE AND
       SE T02260030
METAR KAEJ 252215Z AUTO 00000KT 10SM TS 22/03 A3037 RMK AO2 LTG DSNT NE
       T02210025
METAR KAEJ 252155Z AUTO 32011KT 10SM TS 21/02 A3037 RMK AO2 LTG DSNT
        NE T02140022

METAR KANK 252235Z AUTO 13022G34KT 10SM CLR 23/08 A3041 RMK AO1
       T02250080
METAR KANK 252215Z AUTO 13022G30KT 10SM CLR 23/08 A3040 RMK AO1
       T02330076
METAR KANK 252155Z AUTO 12020G28KT 10SM CLR 23/07 A3040 RMK AO1 T02330072



KTEX 251732Z 2518/2618 26007KT P6SM FEW090
     FM251900 27009KT P6SM VCTS SCT090CB BKN200
     FM260200 13005KT P6SM FEW090 BKN200
METAR KTEX 252235Z AUTO 00000KT 10SM OVC110 21/M01 A3043 RMK AO2 LTG
       DSNT E
METAR KTEX 252215Z AUTO 00000KT 10SM OVC095 21/00 A3044 RMK AO2
METAR KTEX 252155Z AUTO 00000KT 10SM BKN095 BKN110 21/M02 A3044 RMK AO2
       LTG DSNT NE AND S

METAR K04V 252235Z AUTO 13015G21KT 10SM 19/06 A3040 RMK AO2 LTG DSNT
       ALQS PWINO
METAR K04V 252215Z AUTO 15016G23KT 10SM 21/06 A3039 RMK AO2 LTG DSNT E
       AND SE PWINO
METAR K04V 252155Z AUTO 16020G28KT 10SM VCTS 21/07 A3036 RMK AO2

METAR KCEZ 252153Z AUTO 36010G17KT 320V020 10SM CLR 32/00 A3017 RMK AO2
       SLP137 T03220000
METAR KCEZ 252053Z AUTO 32011G18KT 10SM CLR 30/00 A3018 RMK AO2 SLP142
       T03000000 58009
METAR KCEZ 251953Z AUTO 10SM SCT120 32/00 A3019 RMK AO2 SLP144
       T03170000

KDRO 251732Z 2518/2618 12008KT P6SM FEW100
     FM252100 29012KT P6SM VCTS SCT100CB
     FM260000 08012KT P6SM VCTS SCT100CB
     FM260600 VRB04KT P6SM VCTS BKN090CB
     FM261200 VRB04KT P6SM BKN090
METAR KDRO 252153Z AUTO 17004KT 10SM FEW100 27/02 A3024 RMK AO2 SLP150
       T02720017
METAR KDRO 252053Z AUTO 35009KT 10SM CLR 28/02 A3024 RMK AO2 LTG DSNT E
       SLP149 T02780022 56013
METAR KDRO 251953Z AUTO 34007KT 10SM FEW100 28/01 A3025 RMK AO2 SLP150
       T02780011

METAR KPSO 252235Z AUTO 02003KT 10SM OVC085 16/10 A3041 RMK AO2
       T01620104
METAR KPSO 252215Z AUTO 05004KT 10SM -RA SCT041 SCT065 OVC085 16/10
       A3039 RMK AO2 T01550097
METAR KPSO 252155Z AUTO 12007G14KT 10SM -RA SCT035 BKN050 OVC065 17/08
       A3038 RMK AO2 LTG DSNT N AND S T01720080

METAR KCPW 252235Z AUTO 23012G19KT 7SM DZ SCT028 BKN034 OVC043 05/05
       A3070 RMK AO2 LTG DSNT NE AND E
METAR KCPW 252215Z AUTO 23008G16KT 10SM RA BKN030 BKN036 OVC055 06/04
       A3071 RMK AO2 LTG DSNT NE AND E
METAR KCPW 252155Z AUTO 18018G21KT 10SM VCTS SCT043 BKN055 OVC070 07/03
       A3070 RMK AO2 LTG DSNT S

KALS 252151Z 2522/2618 15010KT P6SM VCSH BKN060
      TEMPO 2522/2524 VRB25G35KT -TSRA BKN020CB
     FM260000 10010KT 4SM -RA BKN060
     FM260300 12010KT P6SM VCSH BKN010 OVC060
     FM260600 12006KT P6SM SCT010 OVC050
METAR KALS 252152Z AUTO 11016G31KT 10SM -RA FEW046 SCT070 OVC095 13/10
       A3035 RMK AO2 PK WND 14032/2135 WSHFT 2113 LTG DSNT NE AND E
       TSB13E50 SLP216 P0013 T01330100
SPECI KALS 252147Z AUTO 11020G31KT 7SM -TSRA FEW021 BKN070 OVC090 13/10
       A3036 RMK AO2 PK WND 14032/2135 WSHFT 2113 LTG DSNT NE AND E
       TSB13 P0013
SPECI KALS 252129Z AUTO 16017KT 2 1/2SM +TSRA OVC065 13/11 A3038 RMK AO2
       WSHFT 2113 VIS 1 1/2V5 LTG DSNT NE AND SE TSB13 P0007
       T01330106

Sunrise/Sunset for 06/25/2022
Vail    - 05:39:10 MDT / 20:37:08 MDT
Durango - 05:52:30 MDT / 20:35:54 MDT
Alamosa - 05:43:58 MDT / 20:28:27 MDT

Grand Junction Aviation Discussion
Issued at 2052 UTC Saturday, June 25, 2022

.AVIATION...(For the 18Z TAFS through 18Z Sunday afternoon)
Issued at 1142 AM MDT Sat Jun 25 2022
Moisture levels have decreased across the region which will reduce
thunderstorm activity this afternoon and evening. Therefore, the
potential for thunderstorms impacting TAF sites directly is low
and have only mentioned VCTS for the mountain sites KASE, KGUC,
KTEX as well as KDRO where moisture was a bit deeper. Otherwise,
VFR conditions will prevail at all TAF sites with ceilings staying
above ILS breakpoints through the next 24 hours.


* * * * * Arizona * * * * *

KPGA 252217Z 2522/2618 VRB06KT P6SM VCTS SCT100CB BKN150
      TEMPO 2522/2524 VRB15G30KT 5SM TSRA BKN090CB
     FM260100 VRB06KT P6SM SCT120
SPECI KPGA 252202Z AUTO 35007KT 10SM TS CLR 34/03 A3005 RMK AO2 LTG DSNT
       E AND S TSB2156 T03390028
METAR KPGA 252153Z AUTO 30007KT 260V360 10SM VCTS CLR 36/03 A3005 RMK
       AO2 LTG DSNT E AND S SLP099 T03560033
METAR KPGA 252053Z AUTO 33008G15KT 10SM CLR 35/04 A3006 RMK AO2 SLP104
       T03500039 58019

METAR KRQE 252153Z AUTO VRB04KT 10SM BKN100 26/03 A3028 RMK AO2 SLP138
       T02610033
METAR KRQE 252053Z AUTO 36015KT 10SM OVC090 25/04 A3028 RMK AO2 WSHFT
       2017 SLP138 T02500044 58004
SPECI KRQE 252037Z AUTO 36014KT 10SM OVC090 24/04 A3029 RMK AO2 WSHFT
       2017 T02440039

Flagstaff (KFSX) 06/25/22 22:38 UTC
Radar VAD winds      Height      Dir/Spd(kt)
                  35000 FT MSL...222/025
                  34100 FT MSL...219/024
                  32000 FT MSL...212/020
                  30000 FT MSL...215/018
                  29000 FT MSL...222/017
                  28900 FT MSL...222/017
                  28000 FT MSL...217/017
                  27000 FT MSL...212/014
                  26000 FT MSL...208/013
                  25000 FT MSL...197/014
                  24800 FT MSL...212/011
                  24000 FT MSL...210/010
                  23000 FT MSL...228/008
                  22000 FT MSL...230/008
                  21400 FT MSL...236/007
                  21000 FT MSL...256/006
                  20000 FT MSL...294/005
                  19000 FT MSL...327/006
                  18600 FT MSL...350/007
                  18000 FT MSL...024/008
                  17000 FT MSL...024/012
                  16400 FT MSL...037/012
                  16000 FT MSL...037/014
                  15000 FT MSL...024/013
                  14600 FT MSL...039/016
                  14000 FT MSL...042/016
                  13100 FT MSL...034/016
                  13000 FT MSL...033/016
                  12000 FT MSL...028/012
                  11800 FT MSL...027/012
                  11000 FT MSL...055/012
                  10700 FT MSL...019/010
                  10000 FT MSL...049/013
                  10000 FT MSL...008/010
                   9200 FT MSL...027/012
                   9000 FT MSL...062/014
                   8500 FT MSL...035/012
                   7800 FT MSL...072/010
                   7400 FT MSL...079/007
                   7400 FT MSL...044/010

Flagstaff Aviation Discussion
Issued at 2127 UTC Saturday, June 25, 2022

.AVIATION....For the 00Z TAF package...Scattered thunderstorms
with LCL MVFR conditions, erratic winds, and locally heavy rain
will diminish after 02Z this evening. Scattered thunderstorms will
develop again on Sunday, most numerous over the high terrain.


* * * * * Utah * * * * *

KSLC 252030Z 2521/2624 33010G18KT P6SM SKC
     FM260500 15006KT P6SM SKC
     FM261700 34006KT P6SM FEW150
METAR KSLC 252154Z 31009G17KT 10SM FEW100 FEW130 31/01 A3015 RMK AO2
        SLP154 CB DSNT SE ACSL DSNT E T03110006
METAR KSLC 252054Z 33007KT 10SM FEW100 FEW130 31/03 A3016 RMK AO2 SLP157
        CB DSNT SE ACSL DSNT E AND SW T03060033 58014
METAR KSLC 251954Z 31011G16KT 10SM FEW100 SCT170 29/03 A3018 RMK AO2
        SLP163 TCU DSNT S T02890028

KVEL 252131Z 2522/2618 36015G25KT P6SM FEW110
     FM252300 01010KT P6SM FEW110
     FM260400 01009KT P6SM FEW250
     FM261400 VRB04KT P6SM FEW250
METAR KVEL 252153Z AUTO 36015G22KT 10SM CLR 29/04 A3021 RMK AO2 PK WND
       35026/2054 LTG DSNT NW SLP167 T02890044
METAR KVEL 252053Z AUTO 35019G25KT 10SM CLR 29/06 A3020 RMK AO2 LTG DSNT
       NW SLP164 T02940061 56010
METAR KVEL 251953Z AUTO VRB05G16KT 10SM FEW110 29/04 A3021 RMK AO2 LTG
       DSNT NW SLP168 T02890044

SPECI KPUC 252232Z AUTO 31010G25KT 9SM -RA FEW075 FEW090 OVC110 20/10
       A3022 RMK AO2 PK WND 29026/2222 WSHFT 2212 LTG DSNT E AND SE
       AND W RAB20 P0003 T02000100
SPECI KPUC 252223Z AUTO 30017G26KT 9SM RA OVC110 22/09 A3021 RMK AO2 PK
       WND 29026/2222 LTG DSNT E AND SE AND W RAB20 P0002
       T02170089
METAR KPUC 252153Z AUTO 04008KT 10SM VCTS FEW045 SCT090 BKN110 26/06
       A3020 RMK AO2 RAB33E51 SLP144 P0003 T02610056

KCNY 251732Z 2518/2618 VRB04KT P6SM FEW120
     FM252000 31008KT P6SM FEW120
     FM252300 32012G20KT P6SM FEW120
     FM260200 01008KT P6SM SCT250
     FM260800 VRB04KT P6SM FEW250
METAR KCNY 252153Z AUTO 18007KT 10SM CLR 33/00 A3006 RMK AO2 SLP113
       T03330000 $
METAR KCNY 252053Z AUTO 17010G15KT 10SM SCT120 32/01 A3007 RMK AO2
       SLP117 T03220011 58015 $
METAR KCNY 251953Z AUTO 00000KT 10SM CLR 34/02 A3009 RMK AO2 SLP119
       T03390017 $


Salt Lake City (KMTX) 06/25/22 22:41 UTC
Radar VAD winds      Height      Dir/Spd(kt)
                  11000 FT MSL...298/014
                  10000 FT MSL...294/016
                   9100 FT MSL...316/006
                   9000 FT MSL...314/007
                   8300 FT MSL...295/009
                   8000 FT MSL...329/005
                   7700 FT MSL...330/005
                   6900 FT MSL...331/006
                   6900 FT MSL...014/007
                   6600 FT MSL...359/004

Salt Lake City Aviation Discussion
Issued at 2214 UTC Saturday, June 25, 2022

.AVIATION...KSLC...VFR conditions will persist throughout the period
for the KSLC terminal. Weak high pressure building over the region
will keep clear skies with mostly light and diurnally driven winds.
.REST OF UTAH AND SOUTHWEST WYOMING...VFR conditions will prevail
throughout most of Utah/SW Wyoming throughout the period. Weak high
pressure is building over Utah which will keep northern Utah/SW
Wyoming with mostly clear skies and light diurnally driven winds.
Terminals in southern/eastern Utah, mainly near CDC and BCE, could
continue to see evening thunderstorm development which could bring
brief periods of MVFR/IFR conditions. Otherwise, winds will be light
and diurnal throughout the area.


* * * * * Wyoming * * * * *

KEVW 251733Z 2518/2618 29010KT P6SM SKC
     FM260200 33008KT P6SM SKC
     FM260800 08010G20KT P6SM SKC
     FM261400 05006KT P6SM SKC=
METAR KEVW 252153Z AUTO 27015G20KT 10SM CLR 24/00 A3034 RMK AO2 SLP184
       T02440000
METAR KEVW 252053Z AUTO 27016G23KT 10SM CLR 24/00 A3034 RMK AO2 SLP181
       T02440000 56008
METAR KEVW 251953Z AUTO 25013G24KT 10SM FEW080 24/03 A3035 RMK AO2
       SLP186 T02440028

KRKS 251729Z 2518/2618 08012G18KT P6SM FEW050 SCT100
     FM260100 07018G26KT P6SM FEW150
     FM260800 07011KT P6SM SCT200
METAR KRKS 252154Z AUTO 10SM CLR 24/02 A3033 RMK AO2 SLP198 T02390017
METAR KRKS 252054Z AUTO VRB05KT 10SM CLR 23/02 A3034 RMK AO2 SLP204
        T02330017 58010
METAR KRKS 251954Z AUTO 12003KT 10SM CLR 21/03 A3035 RMK AO2 SLP201
        T02110028

KRWL 252234Z 2523/2618 02012KT P6SM SCT250
     FM260100 05015G25KT P6SM FEW250
METAR KRWL 252153Z AUTO 35008KT 320V030 10SM BKN080 23/03 A3035 RMK AO2
       SLP195 T02330028
METAR KRWL 252053Z AUTO 05008KT 10SM CLR 23/03 A3036 RMK AO2 SLP199
       T02280033 58012
METAR KRWL 251953Z AUTO 10SM CLR 21/04 A3037 RMK AO2 SLP204
       T02060039

KLAR 252233Z 2523/2618 11010G20KT P6SM VCTS BKN090CB
     FM260000 10013KT P6SM BKN100
     FM261100 15008KT P6SM BKN020 OVC050
METAR KLAR 252153Z AUTO 11012KT 10SM BKN060 OVC075 19/04 A3037 RMK AO2
       WSHFT 2113 LTG DSNT SW SLP198 T01890044
SPECI KLAR 252133Z AUTO 12014G23KT 10SM BKN060 OVC075 19/04 A3037 RMK
       AO2 WSHFT 2113 LTG DSNT S T01890044
METAR KLAR 252053Z AUTO 00000KT 10SM SCT060 19/05 A3037 RMK AO2 SLP194
       T01940050 56012

KCYS 251720Z 2518/2618 03010KT P6SM BKN040
     FM252100 04011G20KT P6SM VCTS SCT050CB
     FM260000 06011KT P6SM VCSH BKN090
     FM260600 07011KT P6SM SCT020 BKN050
     FM261000 16007KT P6SM BKN020 OVC050
METAR KCYS 252153Z 04007G15KT 10SM SCT060 21/04 A3036 RMK AO2 SLP211
       T02060044
METAR KCYS 252053Z 02006KT 10SM BKN055 19/05 A3037 RMK AO2 SLP212
       T01940050 58010
METAR KCYS 251953Z 00000KT 10SM CLR 21/05 A3038 RMK AO2 SLP209
       T02060050

Riverton (KRIW) 06/25/22 22:37 UTC
Radar VAD winds      Height      Dir/Spd(kt)
                  10000 FT MSL...002/007
                   9000 FT MSL...051/009
                   9000 FT MSL...056/008
                   8100 FT MSL...057/008
                   8000 FT MSL...049/012
                   7300 FT MSL...049/010
                   7000 FT MSL...041/012
                   6700 FT MSL...053/010
                   6200 FT MSL...038/012
                   6000 FT MSL...033/013
                   5900 FT MSL...030/012

Cheyenne (KCYS) 06/25/22 22:41 UTC
Radar VAD winds      Height      Dir/Spd(kt)
                  30100 FT MSL...251/029
                  28000 FT MSL...226/036
                  27000 FT MSL...259/047
                  26000 FT MSL...266/028
                  25000 FT MSL...265/034
                  23000 FT MSL...256/041
                  22000 FT MSL...273/027
                  21000 FT MSL...265/028
                  20000 FT MSL...287/022
                  20000 FT MSL...293/021
                  19000 FT MSL...281/024
                  18000 FT MSL...266/028
                  17000 FT MSL...258/026
                  16000 FT MSL...267/026
                  15100 FT MSL...271/025
                  15000 FT MSL...264/029
                  14000 FT MSL...265/025
                  12000 FT MSL...240/016
                  11000 FT MSL...205/012
                  10500 FT MSL...140/013
                  10000 FT MSL...112/010
                   9500 FT MSL...119/011
                   9000 FT MSL...106/010
                   8700 FT MSL...094/010
                   8000 FT MSL...105/007
                   7900 FT MSL...089/011
                   7300 FT MSL...097/009
                   6800 FT MSL...082/012

Riverton Aviation Discussion
Issued at 2146 UTC Saturday, June 25, 2022

.AVIATION...(For the 00Z TAFS through 00Z Monday)
Issued at 345 PM MDT Sat Jun 25 2022
Weak high pressure continues across the state tonight into Sunday.
This will keep winds for most areas light, generally below 10kts.
This only site with gustier winds will be KRKS, which will see some
gusts to 15kts now through 12Z Sunday. Cloud cover will be FEW to
SCT, but cigs will remain well above 3000 ft tonight and tomorrow.
Please see the Aviation Weather Center and/or CWSU ZDV and ZLC for
the latest information on icing and turbulence forecasts.

Cheyenne Aviation Discussion
Issued at 2043 UTC Saturday, June 25, 2022

.AVIATION...(For the 18Z TAFS through 18Z Sunday afternoon)
Issued at 1059 AM MDT Sat Jun 25 2022
Convection limited today to mainly KLAR and KCYS as latest short
term guidance only showing showers around these two airports.
Followed HRRR and RAP guidance on convection timing and
placement...which puts weak thunderstorms around these two
airport. Convection ends pretty rapidly around...or shortly after
00Z today. MVFR ceilings tonight at KLAR and KCYS with southeast
upslope flow.


* * * * * Nebraska * * * * *

METAR KIBM 252235Z AUTO 05006KT 10SM CLR 22/04 A3033 RMK AO2
       T02230041
METAR KIBM 252215Z AUTO 36009G18KT 10SM CLR 23/04 A3033 RMK AO2
       T02250040
METAR KIBM 252155Z AUTO 02009G15KT 10SM CLR 22/04 A3033 RMK AO2 LTG DSNT
       SW T02180040

KSNY 252235Z 2523/2618 36010G18KT P6SM SCT035 BKN100
     FM260100 06011KT P6SM BKN100
     FM260600 03012KT P6SM VCSH BKN090
     FM261100 06010KT P6SM VCSH BKN080
METAR KSNY 252153Z AUTO 36010KT 10SM CLR 24/05 A3028 RMK AO2 SLP208
       T02440050
METAR KSNY 252053Z AUTO 01011G18KT 10SM CLR 24/05 A3030 RMK AO2 SLP213
       T02440050 58010
METAR KSNY 251953Z AUTO 03010G19KT 10SM CLR 23/06 A3031 RMK AO2 SLP221
       T02330061

METAR KOGA 252235Z AUTO 02005KT 10SM CLR 27/07 A3024 RMK AO2
       T02660066
METAR KOGA 252215Z AUTO 36010KT 350V050 10SM CLR 27/07 A3024 RMK AO2
       T02650074
METAR KOGA 252155Z AUTO 34007G19KT 10SM SCT065 27/08 A3025 RMK AO2 LTG
       DSNT NE T02660077

METAR KIML 252153Z AUTO 04014G21KT 10SM CLR 25/09 A3024 RMK AO2 SLP214
       T02500094
METAR KIML 252053Z AUTO 35012G20KT 10SM CLR 24/10 A3026 RMK AO2 SLP219
       T02440100 56003
METAR KIML 251953Z AUTO 35016G22KT 10SM CLR 24/10 A3026 RMK AO2 PK WND
       36032/1926 SLP221 T02390100

KMCK 251720Z 2518/2618 36016G24KT P6SM BKN200
     FM260300 04009KT P6SM BKN250
METAR KMCK 252153Z AUTO 02014KT 10SM CLR 26/09 A3019 RMK AO2 PK WND
       01026/2058 SLP202 T02610094
METAR KMCK 252053Z AUTO 02017G25KT 10SM CLR 28/09 A3020 RMK AO2 PK WND
       02027/2000 SLP202 T02780094 53001
METAR KMCK 251953Z AUTO 01016G23KT 10SM CLR 27/09 A3019 RMK AO2 PK WND
       35027/1854 SLP199 T02670089

North Platte (KLNX) 06/25/22 22:39 UTC
Radar VAD winds      Height      Dir/Spd(kt)
                   9000 FT MSL...324/017
                   8000 FT MSL...348/019
                   7400 FT MSL...347/022
                   7000 FT MSL...349/021
                   6300 FT MSL...346/022
                   6000 FT MSL...348/022
                   5600 FT MSL...349/022
                   5000 FT MSL...351/023
                   4900 FT MSL...350/022
                   4100 FT MSL...350/021
                   4000 FT MSL...352/023
                   3700 FT MSL...350/021
                   3400 FT MSL...353/020

North Platte Aviation Discussion
Issued at 1951 UTC Saturday, June 25, 2022

.AVIATION...(For the 18Z TAFS through 18Z Sunday afternoon)
Issued at 1206 PM CDT Sat Jun 25 2022
VFR conditions expected across central and western Nebraska
through the weekend with just some mid/high clouds to contend
with. Winds will be gusty through this afternoon, then diminishing
to light and variable after sunset and remaining light through
the end of the valid period.


* * * * * Kansas * * * * *

KGLD 251720Z 2518/2618 01016G24KT P6SM SCT035
     FM252200 04015KT P6SM BKN150
     FM260300 07009KT P6SM BKN150
METAR KGLD 252153Z AUTO 03013G20KT 10SM CLR 27/08 A3023 RMK AO2 PK WND
       05026/2103 SLP194 T02670083
METAR KGLD 252053Z AUTO 03016G25KT 10SM CLR 26/09 A3025 RMK AO2 SLP200
       T02560089 58003
METAR KGLD 251953Z AUTO 02015G24KT 10SM CLR 23/09 A3025 RMK AO2 PK WND
       34027/1854 SLP205 T02330089

KGCK 251732Z 2518/2618 02025G35KT P6SM VCSH BKN100
      TEMPO 2518/2521 -SHRA
     FM260000 02015G25KT P6SM BKN100
     FM260600 03008KT P6SM VCSH OVC090
     FM260900 04014KT P6SM -RA OVC070
     FM261500 04015G25KT P6SM VCSH OVC070
METAR KGCK 252154Z 03017G26KT 10SM CLR 27/14 A3015 RMK AO2 PK WND
       04032/2104 SLP175 T02670144
METAR KGCK 252054Z 02022G30KT 10SM CLR 26/14 A3017 RMK AO2 PK WND
       01034/2042 SLP181 60000 T02560139 55006
METAR KGCK 251954Z 01021G29KT 10SM FEW120 24/14 A3016 RMK AO2 PK WND
       35032/1912 SLP179 T02390139

METAR KLBL 252156Z AUTO 02016G25KT 10SM CLR 29/15 A3014 RMK AO2 PK WND
       02027/2102 SLP171 T02890150
METAR KLBL 252056Z AUTO 01019G26KT 10SM CLR 28/15 A3015 RMK AO2 PK WND
       01032/2019 SLP175 T02780150 51006
METAR KLBL 251956Z AUTO 01021G29KT 10SM CLR 27/15 A3015 RMK AO2 PK WND
       01029/1955 SLP171 T02720150

METAR KEHA 252235Z AUTO 02020G27KT 10SM SCT110 23/12 A3022 RMK AO2 PWINO
       T02320125
METAR KEHA 252215Z AUTO 36020G24KT 10SM CLR 25/13 A3022 RMK AO2 PWINO
       T02460132
METAR KEHA 252155Z AUTO 02022G26KT 10SM CLR 24/13 A3023 RMK AO2 PWINO
       T02440132

Goodland (KGLD) 06/25/22 22:39 UTC
Radar VAD winds      Height      Dir/Spd(kt)
                  30000 FT MSL...247/045
                  28000 FT MSL...251/044
                  26000 FT MSL...245/040
                  25000 FT MSL...243/038
                  24000 FT MSL...239/035
                  22000 FT MSL...239/030
                  20000 FT MSL...231/027
                  19000 FT MSL...265/026
                   9000 FT MSL...020/016
                   8000 FT MSL...035/018
                   8000 FT MSL...032/018
                   7000 FT MSL...033/018
                   6900 FT MSL...032/018
                   6100 FT MSL...030/019
                   6000 FT MSL...030/019
                   5400 FT MSL...029/019
                   5000 FT MSL...029/018
                   4800 FT MSL...029/018
                   4300 FT MSL...026/019
                   4100 FT MSL...025/018
                   4000 FT MSL...028/019

Dodge City (KDDC) 06/25/22 22:38 UTC
Radar VAD winds      Height      Dir/Spd(kt)
                  18000 FT MSL...223/047
                   8000 FT MSL...006/019
                   7000 FT MSL...010/026
                   7000 FT MSL...010/026
                   6000 FT MSL...018/025
                   6000 FT MSL...018/024
                   5100 FT MSL...026/024
                   5000 FT MSL...025/024
                   4400 FT MSL...024/024
                   4000 FT MSL...022/025
                   3600 FT MSL...023/023
                   3200 FT MSL...019/025
                   3000 FT MSL...019/023
                   3000 FT MSL...019/023

Goodland Aviation Discussion
Issued at 2126 UTC Saturday, June 25, 2022

.AVIATION...(For the 18Z TAFS through 18Z Sunday afternoon)
Issued at 1052 AM MDT Sat Jun 25 2022
Morning stratus is finally breaking with ceilings becoming VFR
again by 18Z or just slightly after and remaining VFR throughout
the duration of the period. Breezy winds will continue through the
day with gusts approaching 25 knots at times before becoming
lighter overnight and throughout the morning tomorrow.

Dodge City Aviation Discussion
Issued at 1900 UTC Saturday, June 25, 2022

.AVIATION...(For the 18Z TAFS through 18Z Sunday afternoon)
Issued at 1015 AM CDT Sat Jun 25 2022
VFR will continue to prevail through this TAF cycle. At 15z Sat,
the initial cold front had cleared all of the airports, with
observed elevated/gusty north winds. North winds will continue to
gust 30-35 kts through the afternoon, with a mix of mid and high
clouds. Kept the TAFs dry through this afternoon, but an isolated
shower is possible. Cloud decks will thicken and lower tonight
through 12z Sun, with ceilings of 7-8k ft AGL at GCK/DDC by 12z
Sun. Higher midlevel clouds at HYS, with the lowest ceilings to
near high end MVFR at LBL by 12z Sun. Rain coverage will increase
overnight through 15z Sun, with the highest probability of
aviation impacts at LBL, and the least at HYS. Kept the HYS TAF
dry on this update. Rain coverage will decrease daylight Sunday,
with midlevel cloud decks persisting. North to northeast winds
will continue through this TAF period.


* * * * * Texas/Oklahoma * * * * *

KGUY 251743Z 2518/2618 01022G30KT P6SM VCSH SCT035 SCT200
     FM260300 02014KT 6SM SHRA BR VCTS BKN040CB OVC100
      TEMPO 2605/2609 4SM TSRA BKN030CB
     FM260900 04016KT 6SM SHRA BR OVC024=
METAR KGUY 252153Z AUTO 03016G27KT 10SM CLR 27/14 A3015 RMK AO2 PK WND
       36030/2139 SLP160 T02720144
METAR KGUY 252053Z AUTO 01021G28KT 10SM CLR 27/14 A3015 RMK AO2 PK WND
       02033/2001 SLP163 T02720139 51011
METAR KGUY 251953Z AUTO 02025G33KT 10SM CLR 27/15 A3015 RMK AO2 PK WND
       03035/1919 SLP157 T02720150

KDHT 251743Z 2518/2618 03019G25KT P6SM FEW060 SCT220
     FM252300 05020KT P6SM FEW070 SCT150
     FM260100 35018KT P6SM VCTS BKN070CB OVC150
      TEMPO 2602/2606 6SM TSRA BR OVC050CB
     FM260600 01017KT 6SM SHRA BR OVC025
     FM261100 04015KT 6SM BR VCSH OVC012
METAR KDHT 252153Z AUTO 03022G32KT 8SM CLR 28/13 A3019 RMK AO2 PK WND
       04033/2136 SLP160 T02830128
METAR KDHT 252053Z AUTO 03023G30KT 7SM FEW055 29/13 A3020 RMK AO2 PK WND
       03031/2037 SLP163 T02890133 53003
METAR KDHT 251953Z AUTO 03020G28KT 7SM CLR 30/12 A3019 RMK AO2 PK WND
       01030/1921 SLP157 T03000122

Amarillo (KAMA) 06/25/22 22:39 UTC
Radar VAD winds      Height      Dir/Spd(kt)
                  40000 FT MSL...345/050
                  35000 FT MSL...339/014
                  30000 FT MSL...201/013
                  28000 FT MSL...158/018
                  26000 FT MSL...145/024
                  25100 FT MSL...149/021
                  25000 FT MSL...150/020
                  24000 FT MSL...159/020
                  22000 FT MSL...145/022
                  20900 FT MSL...158/018
                  20000 FT MSL...195/015
                  19000 FT MSL...151/017
                  18000 FT MSL...197/015
                  17500 FT MSL...160/019
                  17000 FT MSL...183/016
                  16000 FT MSL...167/020
                  15000 FT MSL...189/021
                  14800 FT MSL...163/019
                  14000 FT MSL...168/020
                  13000 FT MSL...138/019
                  12600 FT MSL...140/019
                  12000 FT MSL...112/016
                  11000 FT MSL...105/019
                  10700 FT MSL...105/019
                  10000 FT MSL...088/022
                   9200 FT MSL...075/025
                   9000 FT MSL...068/026
                   8000 FT MSL...055/031
                   8000 FT MSL...056/031
                   7000 FT MSL...041/033
                   6900 FT MSL...041/033
                   6100 FT MSL...036/033
                   6000 FT MSL...039/033
                   5300 FT MSL...034/032
                   5000 FT MSL...034/033
                   4800 FT MSL...031/030
                   4200 FT MSL...032/033
                   4000 FT MSL...033/032
                   4000 FT MSL...033/031


* * * * * New Mexico * * * * *

KFMN 251738Z 2518/2618 VRB06KT P6SM BKN100
     FM260100 13015G27KT P6SM VCSH SCT060 OVC090
     FM260600 09011KT P6SM VCSH SCT060 OVC090
     FM261200 11011KT P6SM SCT030 BKN050
METAR KFMN 252153Z 18010KT 10SM SCT110 31/01 A3014 RMK AO2 SLP141
       T03110006
METAR KFMN 252053Z 12006KT 10SM SCT110 32/01 A3014 RMK AO2 SLP137
       T03220006 58015
METAR KFMN 251953Z VRB03KT 10SM CLR 31/02 A3016 RMK AO2 SLP146
       T03060017

SPECI KSKX 252220Z AUTO 06010KT 10SM -RA OVC060 17/12 A3040 RMK AO2 LTG
       DSNT NE TSE14 P0001
METAR KSKX 252156Z AUTO 23013G23KT 10SM VCTS -RA FEW048 OVC065 18/11
       A3039 RMK AO2 PK WND 25028/2136 LTG DSNT NE TSB45RAB15 PRESRR
       SLP231 P0000 T01780111
SPECI KSKX 252151Z AUTO 24016G23KT 10SM VCTS -RA FEW048 OVC065 18/11
       A3038 RMK AO2 PK WND 25028/2136 TSB45RAB15 P0000

KLVS 251738Z 2518/2618 03011KT P6SM VCSH SCT030 BKN060
      TEMPO 2521/2601 VRB25G37KT 6SM -TSRA SCT019 BKN030CB
     FM260100 03010KT 6SM -SHRA SCT050 BKN070
     FM260600 01009KT 5SM -RA BR SCT040 OVC070
      TEMPO 2610/2614 03010KT RA SCT005 OVC010
     FM261700 09007KT P6SM VCSH OVC015
METAR KLVS 252153Z AUTO 04017G27KT 10SM BKN065 22/07 A3035 RMK AO2 PK
       WND 05027/2145 LTG DSNT SE-SW SLP165 T02220067
METAR KLVS 252053Z AUTO 05017G25KT 10SM CLR 24/07 A3034 RMK AO2 PK WND
       03027/2027 SLP156 T02440072 58013
METAR KLVS 251953Z AUTO 01014G23KT 10SM CLR 24/08 A3035 RMK AO2 PK WND
       03030/1925 SLP161 T02390078

METAR KRTN 252153Z AUTO 07008KT 030V090 10SM CLR 19/13 A3034 RMK AO2
       RAE04 SLP189 P0001 T01940128
METAR KRTN 252053Z AUTO 03009KT 7SM -RA FEW034 BKN070 OVC110 17/14 A3036
       RMK AO2 SLP201 P0005 60009 T01670139 58005
METAR KRTN 251953Z AUTO 30004KT 5SM RA FEW080 OVC090 16/13 A3038 RMK AO2
       SLP210 P0000 T01560128

METAR KCAO 252155Z AUTO 03021G28KT 10SM SCT090 25/12 A3025 RMK AO2 PK
       WND 02030/2112 SLP176 T02500117
METAR KCAO 252055Z AUTO 03018G29KT 10SM CLR 26/12 A3026 RMK AO2 PK WND
       01033/2012 SLP176 T02610122 50004
METAR KCAO 251955Z AUTO 01021G28KT 10SM FEW060 BKN070 27/12 A3026 RMK
       AO2 PK WND 02030/1943 SLP174 T02720122

Albuquerque (KABX) 06/25/22 22:38 UTC
Radar VAD winds      Height      Dir/Spd(kt)
                  45000 FT MSL...009/005
                  40000 FT MSL...125/018
                  38900 FT MSL...133/020
                  35000 FT MSL...187/021
                  34400 FT MSL...178/019
                  30000 FT MSL...179/020
                  30000 FT MSL...203/015
                  28000 FT MSL...196/021
                  26000 FT MSL...181/024
                  25000 FT MSL...160/013
                  24000 FT MSL...167/017
                  22000 FT MSL...176/019
                  20000 FT MSL...195/017
                  19800 FT MSL...196/018
                  19000 FT MSL...202/016
                  18000 FT MSL...201/014
                  17100 FT MSL...202/014
                  17000 FT MSL...202/016
                  16000 FT MSL...203/014
                  15000 FT MSL...200/010
                  14900 FT MSL...209/009
                  14000 FT MSL...204/006
                  13000 FT MSL...176/005
                  13000 FT MSL...168/005
                  12000 FT MSL...144/006
                  11500 FT MSL...107/006
                  11000 FT MSL...125/008
                  10300 FT MSL...104/010
                  10000 FT MSL...097/014
                   9200 FT MSL...103/013
                   9000 FT MSL...111/015
                   8400 FT MSL...099/016
                   8000 FT MSL...111/017
                   7700 FT MSL...097/019
                   7000 FT MSL...108/021
                   7000 FT MSL...098/021
                   6500 FT MSL...112/023
                   6300 FT MSL...111/023

Albuquerque Aviation Discussion
Issued at 2048 UTC Saturday, June 25, 2022

.AVIATION...
18Z TAF CYCLE
Current radar show showers and thunderstorms already beginning to
expand in coverage across northern and central NM. Expect this
activity to continue to increase through the afternoon hours as a
disturbance aloft migrates within monsoonal flow in the presence of
peak heating. Thunderstorms will be capable of producing wet
downbursts with erratic gusts up to 45 kt as well as small hail. A
gusty sfc cold front is expected to surge down the eastern plains
this evening and into tonight. This will bring gusty canyon winds
through the gaps of the central mts tonight from SAF southward to ABQ
and the Tularosa Valley. Showers will continue through the night,
transitioning to stratiform as the atmosphere stabilizes. Areas of
MVFR and even localized IFR conditions will be possible overnight.
12

* * * * * Winds and Temperatures Aloft Forecasts * * * * *

DATA BASED ON 251200Z
VALID 251800Z   FOR USE 1700-2100Z. TEMPS NEG ABV 24000
FT  3000    6000   9000    12000   18000   24000  30000  34000  39000
SLC      9900    2907+13 2515+06 2813-10 2819-22 271938 241748 273054
BCE                      9900+09 2306-12 9900-23 230637 241544 272947
LND              9900+04 2615+02 2926-11 2836-23 274138 274848 275356
RKS              0712    2618+05 2827-10 2725-22 273137 263248 263756
GJT              9900+16 2806+08 2710-10 2313-21 222238 232846 243852
FMN              9900+17 3206+09 2512-10 2121-20 213036 233145 233350
ABQ              1305+16 9900+08 1915-08 2018-18 212534 223444 232451
MBW              9900    2523+04 2733-10 2734-22 254337 264347 254555
DEN              9900+07 2411+05 2820-10 2529-20 233836 225746 235354
PUB              0510+10 1205+04 2916-10 2432-18 213833 203844 214456
ALS                      1009+06 2718-09 2223-19 212934 223245 223753
TCC      0116    9900+15 2116+09 2122-08 2213-18 250933 241643 211953
BFF      3412    3317+06 2823+03 2732-09 2640-21 254637 254347 245855
GLD      3625    3310+14 2907+07 2323-09 2431-20 244834 245645 235753
GCK      0423+16 3309+15 2415+09 2224-09 2321-18 242433 232443 223654
GAG      0109+23 2610+17 2016+09 2120-07 2219-19 212033 202043 212753
AMA      3207    2710+16 2408+09 2017-07 2012-18 990033 211043 191753
---------------------------------------------------------------------

DATA BASED ON 251200Z
VALID 260000Z   FOR USE 2100-0600Z. TEMPS NEG ABV 24000
FT  3000    6000   9000    12000   18000   24000  30000  34000  39000
SLC      9900    3308+15 3015+07 2510-09 2714-21 221839 232447 263650
BCE                      3407+10 2409-10 2108-21 191536 232243 252548
LND              0310+06 2306+03 2827-09 2833-22 274238 264848 265254
RKS              0105    9900+06 2821-09 2725-22 262838 233247 263953
GJT              0208+17 3508+09 2510-09 2418-21 223937 224044 243850
FMN              2105+19 9900+11 3210-09 2316-19 203934 195544 233751
ABQ              0822+11 0916+06 1915-06 2122-16 222132 201943 181854
MBW              1010    9900+02 2835-09 2738-21 263837 243747 254554
DEN              9900+07 2009+05 3021-09 2828-21 254335 234846 265751
PUB              9900+10 9900+05 3310-08 2628-18 255134 235144 245653
ALS                      1405+06 9900-08 2721-18 243434 224344 235054
TCC      0527    0725+14 1022+07 2014-07 2217-17 251233 262743 242154
BFF      3607    3606+07 2919+03 2736-10 2741-21 254737 245646 255455
GLD      0411    0513+08 3507+05 2514-08 2730-18 243834 234845 235754
GCK      0224+17 0517+12 1810+07 2336-08 2435-17 232833 233044 234254
GAG      0221+19 1312+14 1607+08 2314-07 2318-18 222232 212443 212854
AMA      0424    0618+15 1118+07 2216-06 2311-18 230532 250843 221553
---------------------------------------------------------------------

DATA BASED ON 251200Z
VALID 261200Z   FOR USE 0600-1700Z. TEMPS NEG ABV 24000
FT  3000    6000   9000    12000   18000   24000  30000  34000  39000
SLC      9900    9900+15 3015+07 2918-11 2710-22 251939 262945 263951
BCE                      1608+08 0505-10 2109-22 241636 252041 262949
LND              1108+03 2409+03 2921-10 2832-23 273340 273947 265152
RKS              1309    2207+06 2914-10 2720-22 273239 263945 264551
GJT              2406+12 9900+07 3308-10 2515-21 242637 233844 263649
FMN              1311+10 0814+06 0306-08 2614-20 203334 223244 252550
ABQ              1125+10 1915+05 2322-08 2515-18 202234 192544 262952
MBW              1427    2811+04 2823-10 2829-22 264238 245846 265453
DEN              1411+07 2011+02 2710-10 2516-21 234635 235847 264951
PUB              1110+07 9900+03 9900-08 2120-18 223035 213945 264252
ALS                      9900+04 2410-08 2317-19 212434 213745 253551
TCC      0630    1220+12 2120+07 2116-08 9900-19 210734 210544 242252
BFF      0516    2305+05 2618+01 2832-10 2735-22 265338 248946 276653
GLD      0718    0106+07 2705+03 2712-09 2719-19 244334 235946 274551
GCK      0623+12 0108+09 3211+04 2320-07 2333-18 234134 244145 243154
GAG      0624+15 2115+13 2118+06 2012-08 2312-18 301033 990044 212653
AMA      0630    2017+15 2117+07 1914-07 2111-18 070533 990044 211653
---------------------------------------------------------------------

This product is updated automatically at approximately 10, 30 and 50
minutes after each hour, 24 hours per day, 7 days per week.  It may
become unavailable at times due to system outages without prior notice.
Users are advised to check the time at the top of the product to ensure
that it is current.  Furthermore, content and format of the product are
subject to change without prior notice.

Comments and suggestions are welcome and should be directed to one of
the addresses or phone numbers shown at the bottom of this page.  In
order to expedite a response to comments or suggestions, be sure to
mention your interest in the hot-air balloon forecast.


USA.gov is the U.S. government's official web portal to all federal, state and local government web resources and services.